Time;durP1;ratioP1;P1;durP2;ratioP2;P2;SDS_P1;SDS_P2;PMS_P1;PMS_P2;Temp;Humidity;BMP_temperature;BMP_pressure;BME280_temperature;BME280_humidity;BME280_pressure;Samples;Min_cycle;Max_cycle;Signal;HPM_P1;HPM_P2
2021/05/12 00:01:17;;;;;;;15.13;7.97;;;11.50;99.90;;;;;;4377960;32;20358;-66
2021/05/12 00:03:44;;;;;;;12.33;7.57;;;11.50;99.90;;;;;;4379760;32;20252;-66
2021/05/12 00:06:10;;;;;;;15.50;7.73;;;11.50;99.90;;;;;;4387361;32;20630;-66
2021/05/12 00:08:37;;;;;;;14.43;7.97;;;11.50;99.90;;;;;;4389686;32;20408;-68
2021/05/12 00:11:06;;;;;;;13.30;7.33;;;11.50;99.90;;;;;;4389014;32;20171;-65
2021/05/12 00:13:33;;;;;;;11.27;7.00;;;11.40;99.90;;;;;;4390722;32;20223;-65
2021/05/12 00:16:00;;;;;;;14.63;7.70;;;11.40;99.90;;;;;;4390804;32;20167;-66
2021/05/12 00:18:28;;;;;;;14.73;7.83;;;11.40;99.90;;;;;;4390368;32;20220;-66
2021/05/12 00:20:55;;;;;;;19.03;8.20;;;11.40;99.90;;;;;;4387941;32;20582;-66
2021/05/12 00:23:24;;;;;;;12.33;7.33;;;11.40;99.90;;;;;;4379527;32;20159;-66
2021/05/12 00:25:50;;;;;;;16.37;7.70;;;11.40;99.90;;;;;;4391129;32;20164;-65
2021/05/12 00:28:17;;;;;;;11.00;7.80;;;11.40;99.90;;;;;;4390447;32;20231;-65
2021/05/12 00:30:44;;;;;;;10.50;6.70;;;11.50;99.90;;;;;;4389101;32;20596;-65
2021/05/12 00:33:11;;;;;;;14.07;7.10;;;11.40;99.90;;;;;;4388443;32;20223;-66
2021/05/12 00:35:38;;;;;;;12.60;7.23;;;11.50;99.90;;;;;;4388828;32;20172;-67
2021/05/12 00:38:05;;;;;;;17.57;7.47;;;11.50;99.90;;;;;;4389706;32;20266;-67
2021/05/12 00:40:32;;;;;;;11.40;6.37;;;11.50;99.90;;;;;;4389629;32;20199;-65
2021/05/12 00:42:58;;;;;;;11.97;6.90;;;11.50;99.90;;;;;;4383562;32;20503;-65
2021/05/12 00:45:24;;;;;;;10.90;6.70;;;11.60;99.90;;;;;;4385779;32;20282;-66
2021/05/12 00:47:52;;;;;;;11.53;7.30;;;11.50;99.90;;;;;;4389967;32;20221;-66
2021/05/12 00:50:20;;;;;;;13.77;6.60;;;11.40;99.90;;;;;;4391024;32;20215;-65
2021/05/12 00:52:47;;;;;;;13.97;7.67;;;11.50;99.90;;;;;;4387503;32;20168;-66
2021/05/12 00:55:13;;;;;;;12.83;7.03;;;11.40;99.90;;;;;;4383410;32;20164;-66
2021/05/12 00:57:40;;;;;;;14.93;7.97;;;11.40;99.90;;;;;;4389752;32;20203;-66
2021/05/12 01:00:08;;;;;;;16.00;7.70;;;11.30;99.90;;;;;;4389763;32;20238;-66
2021/05/12 01:02:35;;;;;;;11.40;7.47;;;11.20;99.90;;;;;;4387211;32;20250;-65
2021/05/12 01:05:03;;;;;;;16.23;7.33;;;11.40;99.90;;;;;;4390252;32;20172;-65
2021/05/12 01:07:29;;;;;;;15.43;8.10;;;11.30;99.90;;;;;;4375546;32;20204;-67
2021/05/12 01:09:57;;;;;;;9.63;7.33;;;11.30;99.90;;;;;;4388270;32;20175;-65
2021/05/12 01:12:23;;;;;;;13.87;7.63;;;11.20;99.90;;;;;;4387839;32;20156;-66
2021/05/12 01:14:49;;;;;;;12.87;8.07;;;11.30;99.90;;;;;;4389498;32;20161;-67
2021/05/12 01:17:16;;;;;;;14.53;8.43;;;11.30;99.90;;;;;;4389296;32;20179;-65
2021/05/12 01:19:43;;;;;;;16.83;9.97;;;11.30;99.90;;;;;;4391808;32;20171;-65
2021/05/12 01:22:12;;;;;;;15.73;9.17;;;11.40;99.90;;;;;;4389360;32;20192;-67
2021/05/12 01:24:38;;;;;;;15.13;9.27;;;11.40;99.90;;;;;;4387280;32;20488;-67
2021/05/12 01:27:07;;;;;;;16.53;9.77;;;11.50;99.90;;;;;;4391735;32;20256;-67
2021/05/12 01:29:34;;;;;;;10.77;8.33;;;11.50;99.90;;;;;;4389499;32;20172;-66
2021/05/12 01:32:04;;;;;;;16.17;9.33;;;11.50;99.90;;;;;;4389609;32;20151;-65
2021/05/12 01:34:31;;;;;;;13.47;9.00;;;11.60;99.90;;;;;;4384382;32;20156;-66
2021/05/12 01:36:58;;;;;;;11.57;8.53;;;11.60;99.90;;;;;;4390067;32;20176;-67
2021/05/12 01:39:32;;;;;;;17.93;9.70;;;11.70;99.90;;;;;;4389447;32;20237;-66
2021/05/12 01:41:58;;;;;;;13.63;9.83;;;11.60;99.90;;;;;;4389724;32;20163;-66
2021/05/12 01:44:25;;;;;;;16.20;10.23;;;11.70;99.90;;;;;;4384034;32;20204;-66
2021/05/12 01:46:51;;;;;;;14.40;10.47;;;11.60;99.90;;;;;;4388589;32;20253;-66
2021/05/12 01:49:17;;;;;;;17.80;10.63;;;11.60;99.90;;;;;;4389544;32;20168;-67
2021/05/12 01:51:47;;;;;;;19.53;11.50;;;11.70;99.90;;;;;;4389327;32;20514;-66
2021/05/12 01:54:14;;;;;;;17.80;11.13;;;11.60;99.90;;;;;;4387426;32;20458;-65
2021/05/12 01:56:42;;;;;;;13.93;10.33;;;11.60;99.90;;;;;;4389444;32;20224;-66
2021/05/12 01:59:10;;;;;;;16.63;10.53;;;11.50;99.90;;;;;;4390549;32;20191;-66
2021/05/12 02:01:36;;;;;;;22.03;12.67;;;11.50;99.90;;;;;;4389308;32;20460;-65
2021/05/12 02:04:03;;;;;;;16.50;11.70;;;11.40;99.90;;;;;;4389992;32;20646;-65
2021/05/12 02:06:30;;;;;;;18.97;13.17;;;11.40;99.90;;;;;;4393765;32;20247;-66
2021/05/12 02:08:56;;;;;;;19.97;14.03;;;11.40;99.90;;;;;;4392155;32;20179;-67
2021/05/12 02:11:22;;;;;;;18.83;14.03;;;11.40;99.90;;;;;;4392652;32;20184;-65
2021/05/12 02:13:49;;;;;;;20.83;14.27;;;11.40;99.90;;;;;;4389793;32;20687;-68
2021/05/12 02:16:16;;;;;;;19.50;14.50;;;11.40;99.90;;;;;;4391228;32;20178;-67
2021/05/12 02:18:42;;;;;;;20.57;14.27;;;11.30;99.90;;;;;;4392118;32;20215;-66
2021/05/12 02:21:09;;;;;;;22.33;14.20;;;11.30;99.90;;;;;;4393789;32;20251;-65
2021/05/12 02:23:35;;;;;;;22.80;15.50;;;11.30;99.90;;;;;;4389548;32;20175;-66
2021/05/12 02:26:01;;;;;;;21.43;14.93;;;11.30;99.90;;;;;;4380719;32;20206;-67
2021/05/12 02:28:28;;;;;;;21.60;15.60;;;11.20;99.90;;;;;;4392181;32;20160;-67
2021/05/12 02:30:55;;;;;;;26.77;16.93;;;11.20;99.90;;;;;;4391667;32;20230;-67
2021/05/12 02:33:22;;;;;;;24.30;17.10;;;11.20;99.90;;;;;;4393109;32;20211;-66
2021/05/12 02:35:48;;;;;;;23.60;16.77;;;11.20;99.90;;;;;;4389490;32;20243;-66
2021/05/12 02:38:15;;;;;;;30.70;17.20;;;11.20;99.90;;;;;;4392157;32;20255;-66
2021/05/12 02:40:41;;;;;;;28.97;17.73;;;11.00;99.90;;;;;;4392746;32;20174;-66
2021/05/12 02:43:07;;;;;;;22.67;17.70;;;11.20;99.90;;;;;;4392101;32;20184;-67
2021/05/12 02:45:34;;;;;;;27.73;18.07;;;11.10;99.90;;;;;;4390345;32;20639;-66
2021/05/12 02:48:03;;;;;;;23.60;17.27;;;11.00;99.90;;;;;;4391626;32;20160;-67
2021/05/12 02:50:33;;;;;;;23.40;17.87;;;10.90;99.90;;;;;;4392208;32;20246;-66
2021/05/12 02:53:01;;;;;;;31.03;19.47;;;10.90;99.90;;;;;;4392175;32;20185;-65
2021/05/12 02:55:29;;;;;;;25.93;18.83;;;10.90;99.90;;;;;;4390743;32;20250;-66
2021/05/12 02:57:56;;;;;;;33.27;19.13;;;10.70;99.90;;;;;;4391840;32;20555;-67
2021/05/12 03:00:26;;;;;;;23.60;19.37;;;10.70;99.90;;;;;;4391592;32;20217;-65
2021/05/12 03:02:54;;;;;;;25.70;18.00;;;10.60;99.90;;;;;;4388085;32;20214;-67
2021/05/12 03:05:21;;;;;;;27.37;18.53;;;10.60;99.90;;;;;;4387282;32;20215;-67
2021/05/12 03:07:48;;;;;;;33.93;21.53;;;10.60;99.90;;;;;;4384519;32;20157;-66
2021/05/12 03:10:16;;;;;;;27.90;19.53;;;10.50;99.90;;;;;;4392019;32;20715;-67
2021/05/12 03:12:42;;;;;;;25.43;20.07;;;10.50;99.90;;;;;;4392529;32;20211;-68
2021/05/12 03:15:13;;;;;;;29.17;20.70;;;10.60;99.90;;;;;;4389230;32;20178;-66
2021/05/12 03:17:40;;;;;;;34.93;22.23;;;10.50;99.90;;;;;;4388368;32;20185;-66
2021/05/12 03:20:07;;;;;;;26.30;19.97;;;10.50;99.90;;;;;;4391116;32;20172;-67
2021/05/12 03:22:35;;;;;;;35.00;22.87;;;10.50;99.90;;;;;;4391798;32;20167;-67
2021/05/12 03:25:01;;;;;;;30.03;21.27;;;10.50;99.90;;;;;;4390466;32;20167;-67
2021/05/12 03:27:29;;;;;;;34.10;21.27;;;10.40;99.90;;;;;;4387369;32;20181;-65
2021/05/12 03:29:58;;;;;;;28.40;21.93;;;10.40;99.90;;;;;;4390705;32;20266;-64
2021/05/12 03:32:25;;;;;;;35.83;22.80;;;10.50;99.90;;;;;;4388222;32;20224;-64
2021/05/12 03:34:51;;;;;;;30.23;21.73;;;10.30;99.90;;;;;;4391196;32;20191;-66
2021/05/12 03:37:17;;;;;;;32.00;22.47;;;10.30;99.90;;;;;;4390047;32;20231;-66
2021/05/12 03:39:44;;;;;;;26.07;20.30;;;10.30;99.90;;;;;;4378739;32;20193;-67
2021/05/12 03:42:11;;;;;;;28.23;21.17;;;10.40;99.90;;;;;;4390429;32;20224;-66
2021/05/12 03:44:37;;;;;;;28.63;20.50;;;10.20;99.90;;;;;;4392277;32;20608;-66
2021/05/12 03:47:03;;;;;;;30.60;21.93;;;10.30;99.90;;;;;;4387519;32;20217;-65
2021/05/12 03:49:31;;;;;;;28.50;20.97;;;10.20;99.90;;;;;;4391610;32;20629;-65
2021/05/12 03:51:57;;;;;;;27.53;20.63;;;10.20;99.90;;;;;;4390318;32;20221;-64
2021/05/12 03:54:24;;;;;;;28.30;20.40;;;10.20;99.90;;;;;;4391046;32;20646;-65
2021/05/12 03:56:51;;;;;;;29.67;20.87;;;10.20;99.90;;;;;;4387581;32;20160;-66
2021/05/12 03:59:17;;;;;;;31.80;21.10;;;10.20;99.90;;;;;;4392404;32;20217;-65
2021/05/12 04:01:44;;;;;;;27.70;19.60;;;10.10;99.90;;;;;;4390117;32;20669;-66
2021/05/12 04:04:14;;;;;;;30.80;20.03;;;10.20;99.90;;;;;;4391142;32;20210;-67
2021/05/12 04:06:41;;;;;;;27.27;20.67;;;10.10;99.90;;;;;;4385160;32;20210;-66
2021/05/12 04:09:07;;;;;;;27.73;20.70;;;10.10;99.90;;;;;;4391698;32;20507;-66
2021/05/12 04:11:37;;;;;;;30.03;20.17;;;10.10;99.90;;;;;;4382075;32;20189;-66
2021/05/12 04:14:04;;;;;;;26.60;20.27;;;10.10;99.90;;;;;;4389322;32;20633;-65
2021/05/12 04:16:31;;;;;;;29.23;21.23;;;10.10;99.90;;;;;;4387290;32;20208;-65
2021/05/12 04:18:58;;;;;;;30.93;21.30;;;10.10;99.90;;;;;;4376410;32;20473;-64
2021/05/12 04:21:24;;;;;;;27.70;21.00;;;10.20;99.90;;;;;;4383389;32;20625;-64
2021/05/12 04:23:50;;;;;;;27.43;20.73;;;10.10;99.90;;;;;;4382956;32;20176;-65
2021/05/12 04:26:17;;;;;;;27.57;21.30;;;10.10;99.90;;;;;;4388185;32;20164;-65
2021/05/12 04:28:43;;;;;;;26.67;21.53;;;10.10;99.90;;;;;;4389971;32;20226;-65
2021/05/12 04:31:10;;;;;;;30.03;21.97;;;10.10;99.90;;;;;;4384979;32;20182;-65
2021/05/12 04:33:36;;;;;;;29.23;21.47;;;10.10;99.90;;;;;;4390692;32;20162;-65
2021/05/12 04:36:03;;;;;;;27.37;21.33;;;10.10;99.90;;;;;;4387768;32;20216;-66
2021/05/12 04:38:30;;;;;;;28.00;20.40;;;10.10;99.90;;;;;;4385711;32;20250;-65
2021/05/12 04:40:59;;;;;;;25.20;20.07;;;10.10;99.90;;;;;;4390420;32;20172;-66
2021/05/12 04:43:26;;;;;;;24.47;20.33;;;10.20;99.90;;;;;;4390838;32;20266;-66
2021/05/12 04:45:52;;;;;;;28.20;20.87;;;10.20;99.90;;;;;;4389931;32;20173;-64
2021/05/12 04:48:19;;;;;;;27.70;20.77;;;10.20;99.90;;;;;;4389480;32;20175;-65
2021/05/12 04:50:46;;;;;;;28.80;20.70;;;10.30;99.90;;;;;;4389862;32;20167;-64
2021/05/12 04:53:12;;;;;;;28.00;19.03;;;10.40;99.90;;;;;;4390430;32;20261;-66
2021/05/12 04:55:38;;;;;;;31.47;20.60;;;10.60;99.90;;;;;;4389888;32;20179;-65
2021/05/12 04:58:05;;;;;;;27.17;19.23;;;10.80;99.90;;;;;;4387951;32;20206;-66
2021/05/12 05:00:31;;;;;;;24.40;17.47;;;11.10;99.90;;;;;;4390176;32;20186;-65
2021/05/12 05:02:58;;;;;;;22.40;16.97;;;11.50;99.90;;;;;;4389272;32;20160;-65
2021/05/12 05:05:27;;;;;;;19.40;15.47;;;11.90;99.90;;;;;;4389330;32;20190;-68
2021/05/12 05:07:53;;;;;;;23.30;15.77;;;12.50;99.90;;;;;;4387171;32;20160;-65
2021/05/12 05:10:21;;;;;;;18.57;13.30;;;14.20;99.90;;;;;;4383421;32;20298;-64
2021/05/12 05:12:47;;;;;;;17.77;12.23;;;17.40;99.80;;;;;;4381409;32;20640;-65
2021/05/12 05:15:16;;;;;;;14.50;10.20;;;20.90;93.10;;;;;;4390012;32;20207;-65
2021/05/12 05:17:42;;;;;;;14.50;10.27;;;23.60;82.70;;;;;;4388254;32;20211;-65
2021/05/12 05:20:10;;;;;;;14.97;10.43;;;25.50;73.80;;;;;;4388923;32;20207;-67
2021/05/12 05:22:38;;;;;;;14.80;10.13;;;27.00;68.10;;;;;;4389706;32;20168;-64
2021/05/12 05:25:05;;;;;;;12.97;9.70;;;27.50;63.80;;;;;;4383895;32;20603;-65
2021/05/12 05:27:31;;;;;;;11.13;9.43;;;27.20;63.20;;;;;;4378578;32;20204;-66
2021/05/12 05:30:00;;;;;;;15.40;9.63;;;28.00;59.70;;;;;;4383692;32;20631;-66
2021/05/12 05:32:27;;;;;;;15.33;9.80;;;29.10;58.00;;;;;;4383797;32;20195;-68
2021/05/12 05:34:59;;;;;;;12.47;9.37;;;30.10;54.10;;;;;;4382191;32;20203;-65
2021/05/12 05:37:26;;;;;;;12.27;9.13;;;30.70;51.60;;;;;;4371509;32;20266;-65
2021/05/12 05:39:55;;;;;;;12.40;9.47;;;31.20;49.30;;;;;;4384874;32;20211;-65
2021/05/12 05:42:21;;;;;;;12.77;9.30;;;31.70;47.10;;;;;;4362482;32;20691;-67
2021/05/12 05:44:49;;;;;;;18.17;10.13;;;31.00;48.70;;;;;;4381025;32;20220;-66
2021/05/12 05:47:15;;;;;;;13.27;9.23;;;30.00;49.20;;;;;;4375654;32;20206;-67
2021/05/12 05:49:49;;;;;;;15.27;9.97;;;27.90;51.00;;;;;;4380997;32;20225;-66
2021/05/12 05:52:15;;;;;;;13.93;10.30;;;25.30;55.20;;;;;;4381382;32;20176;-66
2021/05/12 05:54:47;;;;;;;17.07;10.33;;;23.20;62.20;;;;;;4386974;32;20493;-67
2021/05/12 05:57:15;;;;;;;13.00;9.03;;;21.60;68.50;;;;;;4386720;32;20223;-66
2021/05/12 05:59:42;;;;;;;14.57;8.53;;;20.20;74.40;;;;;;4383429;32;20651;-63
2021/05/12 06:02:08;;;;;;;18.60;9.23;;;18.70;80.00;;;;;;4383050;32;20204;-65
2021/05/12 06:04:35;;;;;;;17.03;9.03;;;17.80;88.20;;;;;;4377532;32;20198;-66
2021/05/12 06:07:01;;;;;;;14.50;8.07;;;17.40;91.10;;;;;;4381412;32;20298;-67
2021/05/12 06:09:29;;;;;;;12.13;7.30;;;17.10;91.10;;;;;;4380145;32;20171;-67
2021/05/12 06:11:56;;;;;;;12.30;6.80;;;17.20;92.00;;;;;;4379614;32;20277;-65
2021/05/12 06:14:23;;;;;;;17.00;6.50;;;17.60;90.60;;;;;;4376323;32;20171;-66
2021/05/12 06:16:51;;;;;;;15.43;6.27;;;18.00;86.80;;;;;;4377204;32;20223;-65
2021/05/12 06:19:18;;;;;;;12.90;5.73;;;18.60;85.70;;;;;;4384407;32;20302;-65
2021/05/12 06:21:44;;;;;;;12.80;5.77;;;20.00;80.00;;;;;;4385514;32;20207;-65
2021/05/12 06:24:11;;;;;;;14.27;5.43;;;21.40;73.70;;;;;;4387995;32;20155;-65
2021/05/12 06:26:39;;;;;;;12.10;5.30;;;21.90;70.50;;;;;;4388468;32;20187;-65
2021/05/12 06:29:06;;;;;;;16.33;5.90;;;21.00;71.60;;;;;;4386710;32;20529;-65
2021/05/12 06:31:33;;;;;;;16.33;6.37;;;20.60;72.20;;;;;;4384600;32;20689;-65
2021/05/12 06:34:01;;;;;;;15.50;5.83;;;20.20;74.60;;;;;;4384962;32;20156;-66
2021/05/12 06:36:28;;;;;;;17.10;6.00;;;19.70;75.90;;;;;;4389290;32;20179;-65
2021/05/12 06:38:54;;;;;;;12.33;5.20;;;20.00;76.70;;;;;;4388525;32;20558;-65
2021/05/12 06:41:21;;;;;;;12.27;5.83;;;20.10;75.90;;;;;;4381233;32;20241;-65
2021/05/12 06:43:48;;;;;;;13.97;5.60;;;21.70;71.00;;;;;;4368913;32;20585;-64
2021/05/12 06:46:15;;;;;;;16.40;6.17;;;22.70;66.30;;;;;;4380211;32;20198;-64
2021/05/12 06:48:42;;;;;;;10.13;4.67;;;21.70;67.60;;;;;;4383127;32;20586;-68
2021/05/12 06:51:08;;;;;;;20.07;5.67;;;22.10;67.50;;;;;;4385422;32;20210;-67
2021/05/12 06:53:35;;;;;;;15.37;5.07;;;22.40;65.70;;;;;;4389290;32;20190;-66
2021/05/12 06:56:04;;;;;;;13.13;4.73;;;22.20;66.70;;;;;;4389368;32;20219;-66
2021/05/12 06:58:31;;;;;;;10.70;4.70;;;21.70;68.10;;;;;;4389463;32;20195;-66
2021/05/12 07:00:58;;;;;;;9.80;4.30;;;22.80;67.00;;;;;;4390978;32;20148;-67
2021/05/12 07:03:24;;;;;;;12.80;4.80;;;24.40;62.00;;;;;;4390023;32;20480;-66
2021/05/12 07:05:54;;;;;;;11.97;5.10;;;24.50;61.00;;;;;;4391944;32;20207;-66
2021/05/12 07:08:21;;;;;;;16.03;5.10;;;25.20;58.40;;;;;;4385094;32;20156;-66
2021/05/12 07:10:49;;;;;;;10.47;4.63;;;25.00;57.90;;;;;;4387832;32;20156;-66
2021/05/12 07:13:15;;;;;;;11.50;5.43;;;27.30;55.90;;;;;;4379634;32;20248;-66
2021/05/12 07:15:41;;;;;;;12.77;4.63;;;31.00;47.00;;;;;;4384632;32;20178;-65
2021/05/12 07:18:08;;;;;;;11.55;3.83;;;33.80;40.90;;;;;;4389560;32;20190;-67
2021/05/12 07:20:34;;;;;;;12.60;3.80;;;36.00;37.80;;;;;;4383938;32;20164;-65
2021/05/12 07:23:05;;;;;;;11.55;3.30;;;37.30;33.80;;;;;;4388131;32;20164;-66
2021/05/12 07:25:32;;;;;;;11.15;2.67;;;38.20;33.50;;;;;;4394830;32;20175;-66
2021/05/12 07:27:58;;;;;;;8.57;3.22;;;41.00;32.20;;;;;;4407765;32;20478;-67
2021/05/12 07:30:25;;;;;;;9.65;3.28;;;43.10;30.60;;;;;;4406690;32;20215;-67
2021/05/12 07:32:52;;;;;;;9.48;3.22;;;44.90;29.70;;;;;;4405110;32;20160;-66
2021/05/12 07:35:18;;;;;;;8.35;2.70;;;45.80;29.00;;;;;;4406501;32;20155;-66
2021/05/12 07:37:45;;;;;;;7.93;2.53;;;46.50;27.90;;;;;;4406151;32;20170;-67
2021/05/12 07:40:13;;;;;;;8.80;2.80;;;46.20;28.60;;;;;;4405360;32;20343;-66
2021/05/12 07:42:42;;;;;;;8.15;2.30;;;47.50;28.60;;;;;;4404146;32;20152;-67
2021/05/12 07:45:11;;;;;;;8.00;2.90;;;48.90;27.70;;;;;;4406351;32;20182;-66
2021/05/12 07:47:46;;;;;;;8.57;2.78;;;49.50;27.40;;;;;;4402929;32;20215;-67
2021/05/12 07:50:16;;;;;;;10.45;2.60;;;47.50;26.50;;;;;;4401618;32;20208;-66
2021/05/12 07:52:43;;;;;;;7.22;2.72;;;47.70;27.00;;;;;;4402400;32;20156;-66
2021/05/12 07:55:11;;;;;;;5.85;2.25;;;48.80;26.70;;;;;;4399275;32;20231;-67
2021/05/12 07:57:40;;;;;;;8.45;2.25;;;49.80;26.80;;;;;;4397721;32;20595;-66
2021/05/12 08:00:09;;;;;;;10.02;2.67;;;50.50;26.50;;;;;;4403088;32;20216;-67
2021/05/12 08:02:35;;;;;;;7.50;2.53;;;50.80;26.30;;;;;;4404408;32;20152;-67
2021/05/12 08:05:02;;;;;;;6.15;2.50;;;49.80;26.20;;;;;;4405582;32;20163;-68
2021/05/12 08:07:28;;;;;;;7.10;2.30;;;50.00;26.20;;;;;;4405694;32;20144;-66
2021/05/12 08:09:55;;;;;;;10.18;2.75;;;50.00;26.10;;;;;;4405677;32;20160;-67
2021/05/12 08:12:22;;;;;;;7.03;2.62;;;46.90;26.00;;;;;;4403762;32;20663;-67
2021/05/12 08:14:48;;;;;;;5.62;2.33;;;46.50;27.30;;;;;;4405087;32;20242;-67
2021/05/12 08:17:14;;;;;;;8.88;2.40;;;46.80;26.50;;;;;;4403991;32;20156;-66
2021/05/12 08:19:41;;;;;;;8.13;2.62;;;45.80;27.10;;;;;;4404976;32;20264;-65
2021/05/12 08:22:09;;;;;;;6.30;2.50;;;47.20;26.90;;;;;;4404023;32;20148;-67
2021/05/12 08:24:35;;;;;;;8.30;2.60;;;48.10;26.80;;;;;;4406651;32;21130;-66
2021/05/12 08:27:02;;;;;;;9.75;3.20;;;45.30;26.40;;;;;;4404920;32;20163;-66
2021/05/12 08:29:30;;;;;;;6.85;2.28;;;43.80;27.90;;;;;;4405122;32;20533;-66
2021/05/12 08:31:57;;;;;;;8.45;2.87;;;45.90;27.30;;;;;;4404830;32;20204;-66
2021/05/12 08:34:23;;;;;;;8.70;2.55;;;46.20;26.80;;;;;;4402862;32;20175;-66
2021/05/12 08:36:50;;;;;;;8.40;2.47;;;47.30;26.90;;;;;;4405206;32;20164;-66
2021/05/12 08:39:16;;;;;;;8.40;2.78;;;47.50;26.80;;;;;;4406946;32;20204;-67
2021/05/12 08:41:44;;;;;;;8.65;2.33;;;49.40;25.80;;;;;;4407227;32;20175;-67
2021/05/12 08:44:13;;;;;;;7.65;2.70;;;50.10;25.90;;;;;;4400695;32;20511;-67
2021/05/12 08:46:41;;;;;;;8.13;2.87;;;50.30;26.10;;;;;;4404106;32;20208;-66
2021/05/12 08:49:08;;;;;;;10.27;3.05;;;50.20;25.30;;;;;;4398862;32;20156;-67
2021/05/12 08:51:34;;;;;;;7.97;2.65;;;48.20;25.80;;;;;;4406825;32;20539;-67
2021/05/12 08:54:01;;;;;;;7.12;2.78;;;48.90;26.10;;;;;;4403005;32;20156;-68
2021/05/12 08:56:27;;;;;;;8.18;2.95;;;48.10;26.30;;;;;;4406104;32;20555;-67
2021/05/12 08:58:53;;;;;;;8.05;3.00;;;47.70;26.50;;;;;;4409048;32;20170;-68
2021/05/12 09:01:20;;;;;;;5.70;2.33;;;48.30;26.10;;;;;;4412098;32;20642;-67
2021/05/12 09:03:47;;;;;;;6.37;1.67;;;48.70;25.80;;;;;;4404952;32;20178;-67
2021/05/12 09:06:14;;;;;;;5.28;2.00;;;46.60;25.10;;;;;;4404976;32;20190;-67
2021/05/12 09:08:41;;;;;;;6.97;2.83;;;43.90;25.90;;;;;;4404645;32;20217;-67
2021/05/12 09:11:08;;;;;;;10.07;3.17;;;42.00;27.30;;;;;;4402185;32;20148;-67
2021/05/12 09:13:38;;;;;;;9.80;2.62;;;41.90;27.40;;;;;;4404113;32;20433;-67
2021/05/12 09:16:16;;;;;;;9.00;2.30;;;41.50;27.20;;;;;;4397426;32;20460;-67
2021/05/12 09:18:43;;;;;;;7.47;2.78;;;38.10;28.60;;;;;;4401915;32;20477;-67
2021/05/12 09:21:10;;;;;;;9.10;2.83;;;34.60;30.10;;;;;;4405899;32;20215;-66
2021/05/12 09:23:39;;;;;;;7.93;2.60;;;33.50;32.10;;;;;;4404272;32;20175;-65
2021/05/12 09:26:12;;;;;;;8.27;2.92;;;37.10;30.00;;;;;;4403145;32;20218;-67
2021/05/12 09:28:38;;;;;;;8.65;2.55;;;37.00;29.50;;;;;;4397158;32;20206;-66
2021/05/12 09:31:08;;;;;;;10.45;2.97;;;32.50;31.90;;;;;;4397556;32;20431;-67
2021/05/12 09:33:38;;;;;;;8.75;2.42;;;30.00;35.30;;;;;;4402820;32;20197;-67
2021/05/12 09:36:06;;;;;;;10.20;2.83;;;27.60;37.40;;;;;;4401345;32;20175;-67
2021/05/12 09:38:34;;;;;;;9.10;3.70;;;25.20;41.40;;;;;;4403383;32;20649;-68
2021/05/12 09:41:03;;;;;;;6.67;3.10;;;24.10;43.10;;;;;;4403956;32;20225;-65
2021/05/12 09:43:30;;;;;;;9.07;2.83;;;23.20;45.80;;;;;;4402957;32;20249;-68
2021/05/12 09:46:19;;;;;;;9.13;3.23;;;22.60;48.30;;;;;;4402670;32;20598;-68
2021/05/12 09:49:13;;;;;;;13.37;3.03;;;21.80;51.50;;;;;;4404056;32;20152;-68
2021/05/12 09:51:41;;;;;;;6.07;2.60;;;21.20;55.30;;;;;;4403727;32;20312;-67
2021/05/12 09:54:11;;;;;;;11.43;3.30;;;20.80;57.00;;;;;;4403784;32;20182;-68
2021/05/12 09:56:40;;;;;;;9.77;2.70;;;20.50;60.40;;;;;;4402565;32;20148;-68
2021/05/12 09:59:08;;;;;;;9.17;3.07;;;20.70;59.80;;;;;;4403705;32;20183;-67
2021/05/12 10:01:42;;;;;;;8.97;3.20;;;20.40;60.40;;;;;;4400814;32;20536;-68
2021/05/12 10:04:29;;;;;;;10.63;3.50;;;19.80;62.30;;;;;;4402751;32;20178;-66
2021/05/12 10:06:56;;;;;;;7.83;3.63;;;19.70;64.80;;;;;;4398373;32;20169;-67
2021/05/12 10:09:25;;;;;;;8.17;3.03;;;19.60;66.10;;;;;;4402933;32;20179;-68
2021/05/12 10:12:19;;;;;;;8.83;2.90;;;19.70;65.30;;;;;;4404702;32;20219;-66
2021/05/12 10:14:48;;;;;;;11.43;3.70;;;19.80;65.00;;;;;;4387169;32;20167;-69
2021/05/12 10:17:18;;;;;;;9.53;3.80;;;19.60;65.20;;;;;;4381748;32;20194;-67
2021/05/12 10:19:46;;;;;;;10.53;3.37;;;19.40;65.70;;;;;;4387568;32;20156;-67
2021/05/12 10:22:13;;;;;;;9.77;3.77;;;19.40;67.90;;;;;;4386110;32;20184;-67
2021/05/12 10:24:42;;;;;;;10.00;3.37;;;19.40;67.30;;;;;;4398692;32;20234;-67
2021/05/12 10:27:11;;;;;;;9.83;3.07;;;19.40;66.70;;;;;;4385253;32;20271;-67
2021/05/12 10:29:40;;;;;;;10.73;3.23;;;19.60;65.00;;;;;;4388706;32;20220;-66
2021/05/12 10:32:18;;;;;;;9.10;3.10;;;19.60;63.80;;;;;;4384308;32;20204;-67
2021/05/12 10:34:46;;;;;;;6.83;3.23;;;19.80;64.20;;;;;;4387287;32;20631;-68
2021/05/12 10:37:23;;;;;;;9.23;3.20;;;19.40;65.50;;;;;;4384014;32;20156;-67
2021/05/12 10:39:52;;;;;;;6.00;2.80;;;19.50;65.30;;;;;;4389418;32;20283;-66
2021/05/12 10:42:55;;;;;;;5.13;2.57;;;19.70;64.20;;;;;;4388275;32;20164;-66
2021/05/12 10:45:54;;;;;;;8.20;3.30;;;20.20;64.20;;;;;;4388288;32;20205;-68
2021/05/12 10:48:30;;;;;;;10.87;3.73;;;20.30;61.30;;;;;;4380836;32;20192;-67
2021/05/12 10:50:57;;;;;;;9.43;3.07;;;20.40;63.40;;;;;;4394091;32;20233;-67
2021/05/12 10:53:25;;;;;;;8.60;3.03;;;20.50;62.50;;;;;;4404453;32;20663;-66
2021/05/12 10:56:06;;;;;;;6.40;2.43;;;20.40;59.40;;;;;;4405729;32;20167;-66
2021/05/12 10:58:37;;;;;;;8.00;2.63;;;19.80;61.40;;;;;;4406279;32;20166;-66
2021/05/12 11:01:05;;;;;;;7.60;2.57;;;19.40;62.90;;;;;;4401261;32;20255;-67
2021/05/12 11:04:02;;;;;;;6.40;2.73;;;19.30;64.70;;;;;;4398122;32;20342;-67
2021/05/12 11:06:56;;;;;;;7.23;2.83;;;19.40;64.80;;;;;;4398538;32;20557;-67
2021/05/12 11:09:45;;;;;;;6.23;3.03;;;20.10;65.40;;;;;;4405620;32;20156;-67
2021/05/12 11:12:16;;;;;;;9.27;2.87;;;20.40;62.10;;;;;;4399114;32;20522;-67
2021/05/12 11:14:54;;;;;;;8.37;3.27;;;20.20;63.20;;;;;;4404682;32;20220;-67
2021/05/12 11:20:35;;;;;;;8.63;2.67;;;19.90;62.90;;;;;;4401695;32;20682;-67
2021/05/12 11:23:25;;;;;;;6.93;2.83;;;19.40;64.60;;;;;;4403240;32;20186;-66
2021/05/12 11:25:51;;;;;;;7.20;2.50;;;19.60;61.30;;;;;;4357676;33;20699;-66
2021/05/12 11:33:51;;;;;;;7.33;2.60;;;20.80;57.90;;;;;;4358875;32;20508;-68
2021/05/12 11:36:26;;;;;;;8.70;2.40;;;21.00;56.80;;;;;;4356367;32;20153;-67
2021/05/12 11:38:54;;;;;;;9.43;2.87;;;20.80;56.60;;;;;;4354732;33;20160;-64
2021/05/12 11:41:21;;;;;;;10.77;3.03;;;20.40;57.40;;;;;;4358657;32;20236;-67
2021/05/12 11:43:51;;;;;;;7.80;2.83;;;20.30;58.60;;;;;;4354240;33;20181;-67
2021/05/12 11:46:19;;;;;;;6.97;2.53;;;20.50;60.20;;;;;;4357435;32;20224;-66
2021/05/12 11:48:48;;;;;;;5.37;2.80;;;20.60;58.70;;;;;;4355300;32;20485;-69
2021/05/12 11:51:37;;;;;;;9.90;2.97;;;21.00;58.60;;;;;;4356609;32;20181;-68
2021/05/12 11:54:06;;;;;;;6.67;2.20;;;21.00;57.10;;;;;;4353199;32;20524;-67
2021/05/12 11:56:33;;;;;;;8.87;2.63;;;20.90;57.40;;;;;;4354319;33;20237;-66
2021/05/12 11:59:02;;;;;;;6.67;2.60;;;20.60;56.60;;;;;;4353187;32;20199;-67
2021/05/12 12:01:31;;;;;;;9.17;2.80;;;20.30;57.90;;;;;;4355307;33;20176;-67
2021/05/12 12:04:08;;;;;;;9.10;3.13;;;20.30;58.60;;;;;;4398331;32;20219;-68
2021/05/12 12:06:39;;;;;;;10.87;2.70;;;20.20;59.40;;;;;;4401822;32;20168;-68
2021/05/12 12:09:06;;;;;;;8.53;2.87;;;20.30;58.70;;;;;;4401407;32;20209;-66
2021/05/12 12:11:34;;;;;;;6.33;2.37;;;20.10;57.50;;;;;;4403437;32;20223;-68
2021/05/12 12:14:05;;;;;;;7.83;2.60;;;20.10;59.50;;;;;;4402545;32;20147;-68
2021/05/12 12:16:36;;;;;;;8.23;2.23;;;20.40;59.50;;;;;;4401682;32;20144;-67
2021/05/12 12:19:25;;;;;;;9.33;3.33;;;20.80;58.90;;;;;;4402937;32;20249;-68
2021/05/12 12:21:55;;;;;;;8.53;2.90;;;20.80;58.90;;;;;;4401586;32;20584;-68
2021/05/12 12:24:24;;;;;;;11.00;3.27;;;21.10;57.80;;;;;;4404020;32;20211;-66
2021/05/12 12:26:54;;;;;;;7.80;3.10;;;21.20;58.10;;;;;;4403563;32;20170;-67
2021/05/12 12:29:25;;;;;;;8.73;2.57;;;21.20;58.50;;;;;;4402041;32;20168;-67
2021/05/12 12:31:53;;;;;;;8.83;3.33;;;21.00;58.60;;;;;;4403107;32;20156;-66
2021/05/12 12:34:28;;;;;;;5.93;2.20;;;21.40;59.10;;;;;;4400641;32;20183;-68
2021/05/12 12:37:05;;;;;;;14.30;3.47;;;21.30;57.40;;;;;;4399752;32;20304;-68
2021/05/12 12:39:37;;;;;;;12.13;3.17;;;21.10;56.10;;;;;;4401602;32;20581;-68
2021/05/12 12:42:05;;;;;;;11.90;3.77;;;21.00;58.80;;;;;;4401561;32;20176;-67
2021/05/12 12:44:39;;;;;;;9.03;2.83;;;21.10;58.10;;;;;;4402118;32;20234;-66
2021/05/12 12:47:13;;;;;;;11.57;2.80;;;21.30;59.30;;;;;;4401351;32;20237;-68
2021/05/12 12:49:46;;;;;;;8.07;2.63;;;21.60;55.90;;;;;;4399710;32;20233;-68
2021/05/12 12:52:15;;;;;;;8.50;3.17;;;21.50;56.40;;;;;;4398793;32;20164;-68
2021/05/12 12:54:48;;;;;;;6.97;2.57;;;21.80;56.50;;;;;;4401622;32;20233;-67